createdAt,value
2023-01-19T00:01:07.418Z,15.43
2023-01-19T00:03:35.489Z,14.45
2023-01-19T00:06:09.805Z,15.82
2023-01-19T00:08:37.061Z,16.58
2023-01-19T00:11:05.125Z,14.52
2023-01-19T00:13:32.809Z,19.48
2023-01-19T00:15:59.727Z,17.40
2023-01-19T00:18:26.637Z,16.08
2023-01-19T00:20:53.473Z,13.68
2023-01-19T00:23:21.068Z,16.63
2023-01-19T00:25:49.076Z,16.13
2023-01-19T00:28:18.832Z,17.70
2023-01-19T00:30:45.871Z,17.80
2023-01-19T00:33:14.481Z,14.02
2023-01-19T00:35:42.628Z,14.93
2023-01-19T00:38:11.852Z,22.10
2023-01-19T00:40:38.733Z,19.58
2023-01-19T00:43:13.680Z,26.05
2023-01-19T00:45:40.759Z,23.23
2023-01-19T00:48:08.250Z,26.40
2023-01-19T00:50:35.156Z,21.23
2023-01-19T00:53:03.197Z,24.65
2023-01-19T00:55:33.162Z,18.40
2023-01-19T00:57:59.976Z,20.27
2023-01-19T01:00:27.128Z,21.90
2023-01-19T01:02:54.306Z,21.05
2023-01-19T01:05:22.055Z,18.83
2023-01-19T01:07:49.780Z,22.60
2023-01-19T01:10:25.168Z,18.08
2023-01-19T01:12:57.152Z,19.63
2023-01-19T01:15:27.369Z,21.05
2023-01-19T01:17:55.419Z,18.02
2023-01-19T01:20:27.810Z,17.00
2023-01-19T01:22:56.504Z,16.85
2023-01-19T01:25:26.262Z,18.25
2023-01-19T01:27:54.688Z,16.05
2023-01-19T01:30:22.511Z,21.67
2023-01-19T01:32:49.964Z,13.27
2023-01-19T01:35:17.188Z,14.57
2023-01-19T01:37:44.164Z,17.70
2023-01-19T01:40:15.170Z,17.27
2023-01-19T01:42:43.046Z,18.10
2023-01-19T01:45:35.789Z,13.55
2023-01-19T01:48:18.730Z,19.00
2023-01-19T01:51:12.283Z,15.90
2023-01-19T01:53:41.036Z,13.27
2023-01-19T01:56:15.758Z,15.27
2023-01-19T01:58:43.259Z,21.10
2023-01-19T02:01:29.387Z,16.77
2023-01-19T02:03:58.134Z,17.92
2023-01-19T02:06:25.791Z,16.33
2023-01-19T02:09:22.543Z,14.20
2023-01-19T02:12:09.199Z,22.63
2023-01-19T02:14:37.327Z,15.35
2023-01-19T02:17:06.477Z,15.73
2023-01-19T02:19:43.843Z,15.32
2023-01-19T02:22:35.738Z,18.58
2023-01-19T02:25:05.464Z,16.33
2023-01-19T02:27:33.143Z,14.95
2023-01-19T02:30:03.616Z,17.88
2023-01-19T02:32:30.798Z,14.55
2023-01-19T02:34:58.163Z,12.10
2023-01-19T02:37:28.235Z,12.95
2023-01-19T02:40:01.678Z,10.52
2023-01-19T02:42:37.008Z,13.25
2023-01-19T02:45:06.883Z,13.50
2023-01-19T02:47:50.715Z,16.08
2023-01-19T02:50:41.909Z,16.48
2023-01-19T02:53:47.513Z,11.70
2023-01-19T02:56:55.551Z,16.52
2023-01-19T02:59:43.725Z,17.48
2023-01-19T03:02:40.637Z,14.40
2023-01-19T03:05:27.016Z,17.05
2023-01-19T03:08:42.584Z,16.20
2023-01-19T03:11:13.334Z,16.95
2023-01-19T03:13:56.348Z,12.55
2023-01-19T03:16:50.041Z,11.90
2023-01-19T03:19:32.719Z,14.13
2023-01-19T03:22:07.322Z,19.25
2023-01-19T03:24:43.226Z,22.77
2023-01-19T03:27:20.960Z,17.83
2023-01-19T03:29:55.135Z,16.73
2023-01-19T03:32:35.570Z,17.67
2023-01-19T03:35:10.571Z,13.68
2023-01-19T03:37:42.469Z,16.50
2023-01-19T03:40:11.328Z,19.85
2023-01-19T03:42:40.701Z,19.52
2023-01-19T03:45:09.172Z,22.75
2023-01-19T03:47:36.889Z,17.33
2023-01-19T03:50:11.516Z,22.27
2023-01-19T03:52:38.349Z,24.38
2023-01-19T03:55:06.833Z,17.50
2023-01-19T03:57:33.617Z,18.52
2023-01-19T04:00:00.541Z,17.77
2023-01-19T04:02:27.592Z,17.25
2023-01-19T04:04:54.642Z,16.85
2023-01-19T04:07:21.534Z,14.50
2023-01-19T04:09:48.366Z,14.70
2023-01-19T04:12:15.637Z,14.13
2023-01-19T04:14:42.687Z,20.00
2023-01-19T04:17:10.320Z,16.13
2023-01-19T04:19:37.252Z,14.32
2023-01-19T04:22:04.883Z,17.58
2023-01-19T04:24:31.839Z,19.10
2023-01-19T04:26:58.888Z,20.42
2023-01-19T04:29:26.487Z,17.70
2023-01-19T04:31:55.232Z,23.25
2023-01-19T04:34:48.445Z,35.50
2023-01-19T04:42:07.783Z,14.25
2023-01-19T04:49:11.074Z,13.13
2023-01-19T04:52:29.741Z,13.60
2023-01-19T04:55:24.191Z,14.15
2023-01-19T04:58:01.615Z,11.80
2023-01-19T05:01:19.482Z,15.95
2023-01-19T05:04:04.695Z,13.63
2023-01-19T05:39:30.705Z,9.57
2023-01-19T06:05:09.653Z,9.63
2023-01-19T06:36:54.505Z,7.05
2023-01-19T06:39:56.012Z,8.00
2023-01-19T06:42:19.189Z,8.18
2023-01-19T06:44:48.440Z,9.18
2023-01-19T06:47:16.800Z,6.60
2023-01-19T06:50:05.985Z,6.15
2023-01-19T06:52:34.845Z,7.45
2023-01-19T06:55:02.095Z,9.75
2023-01-19T06:57:29.960Z,7.32
2023-01-19T07:00:10.072Z,6.70
2023-01-19T07:02:53.092Z,5.80
2023-01-19T07:05:22.013Z,8.75
2023-01-19T07:07:56.862Z,7.38
2023-01-19T07:12:52.322Z,6.50
2023-01-19T07:15:22.512Z,7.13
2023-01-19T07:17:50.111Z,11.35
2023-01-19T07:20:19.465Z,7.15
2023-01-19T07:22:46.628Z,8.15
2023-01-19T07:25:14.642Z,5.53
2023-01-19T07:27:42.811Z,6.90
2023-01-19T07:30:11.438Z,8.18
2023-01-19T07:32:39.037Z,12.55
2023-01-19T07:35:06.368Z,9.75
2023-01-19T07:37:33.177Z,10.32
2023-01-19T07:40:00.218Z,9.20
2023-01-19T07:42:27.278Z,8.05
2023-01-19T07:44:54.593Z,10.32
2023-01-19T07:47:21.422Z,10.40
2023-01-19T07:49:48.360Z,7.60
2023-01-19T07:52:15.296Z,9.07
2023-01-19T07:54:42.286Z,8.68
2023-01-19T07:57:09.165Z,9.20
2023-01-19T07:59:35.987Z,9.57
2023-01-19T08:02:02.971Z,10.73
2023-01-19T08:04:29.963Z,11.32
2023-01-19T08:06:57.031Z,10.63
2023-01-19T08:09:24.317Z,9.02
2023-01-19T08:11:51.569Z,12.35
2023-01-19T08:14:18.401Z,8.23
2023-01-19T08:16:45.906Z,8.98
2023-01-19T08:19:12.765Z,12.95
2023-01-19T08:21:39.643Z,13.43
2023-01-19T08:24:06.815Z,10.23
2023-01-19T08:26:35.753Z,11.93
2023-01-19T08:29:05.274Z,9.95
2023-01-19T08:31:32.622Z,12.73
2023-01-19T08:33:59.647Z,11.25
2023-01-19T08:36:26.957Z,11.20
2023-01-19T08:38:53.817Z,9.68
2023-01-19T08:41:20.825Z,10.27
2023-01-19T08:43:48.362Z,12.13
2023-01-19T08:46:21.309Z,10.95
2023-01-19T08:48:49.276Z,10.82
2023-01-19T08:51:17.193Z,14.20
2023-01-19T08:53:44.137Z,12.10
2023-01-19T08:56:13.641Z,12.77
2023-01-19T08:58:43.112Z,14.20
2023-01-19T09:01:13.757Z,15.93
2023-01-19T09:03:41.044Z,14.27
2023-01-19T09:06:10.197Z,13.18
2023-01-19T09:08:38.218Z,14.48
2023-01-19T09:11:11.050Z,11.60
2023-01-19T09:13:38.481Z,13.27
2023-01-19T09:16:09.412Z,15.07
2023-01-19T09:18:36.272Z,9.73
2023-01-19T09:21:04.407Z,11.80
2023-01-19T09:23:31.563Z,14.50
2023-01-19T09:26:02.948Z,13.27
2023-01-19T09:28:29.930Z,11.95
2023-01-19T09:30:57.040Z,12.07
2023-01-19T09:33:25.362Z,12.48
2023-01-19T09:35:52.325Z,14.63
2023-01-19T09:38:20.516Z,12.63
2023-01-19T09:40:59.474Z,15.27
2023-01-19T09:43:45.351Z,16.58
2023-01-19T09:46:44.774Z,13.63
2023-01-19T09:49:21.524Z,15.80
2023-01-19T09:51:51.119Z,15.13
2023-01-19T09:54:47.352Z,16.38
2023-01-19T09:57:14.781Z,16.52
2023-01-19T09:59:47.712Z,16.20
2023-01-19T10:02:42.561Z,15.85
2023-01-19T10:05:52.521Z,22.25
2023-01-19T10:08:51.950Z,20.58
2023-01-19T10:11:51.478Z,20.98
2023-01-19T10:15:16.614Z,19.70
2023-01-19T10:18:12.285Z,19.00
2023-01-19T10:23:39.325Z,21.33
2023-01-19T10:26:26.399Z,19.60
2023-01-19T10:29:18.268Z,17.67
2023-01-19T10:32:10.464Z,20.00
2023-01-19T10:34:37.451Z,20.95
2023-01-19T10:37:33.020Z,23.85
2023-01-19T10:40:09.063Z,22.63
2023-01-19T10:42:38.824Z,23.10
2023-01-19T10:45:31.422Z,23.42
2023-01-19T10:48:06.372Z,25.27
2023-01-19T10:53:06.625Z,18.65
2023-01-19T10:55:39.395Z,21.35
2023-01-19T10:58:28.421Z,24.50
2023-01-19T11:00:55.545Z,21.90
2023-01-19T11:03:31.561Z,26.13
2023-01-19T11:06:30.155Z,28.40
2023-01-19T11:09:31.001Z,27.33
2023-01-19T11:11:58.194Z,21.58
2023-01-19T11:14:29.480Z,26.38
2023-01-19T11:16:58.835Z,29.33
2023-01-19T11:19:33.665Z,27.05
2023-01-19T11:24:54.545Z,22.33
2023-01-19T11:27:22.156Z,31.65
2023-01-19T11:30:22.576Z,30.05
2023-01-19T11:32:49.548Z,27.52
2023-01-19T11:35:39.840Z,24.20
2023-01-19T11:38:12.738Z,30.23
2023-01-19T11:40:57.717Z,25.02
2023-01-19T11:43:39.713Z,29.83
2023-01-19T11:46:17.452Z,29.85
2023-01-19T11:49:01.900Z,23.20
2023-01-19T11:51:37.243Z,29.35
2023-01-19T11:54:29.542Z,25.08
2023-01-19T11:57:00.018Z,27.08
2023-01-19T11:59:27.013Z,24.50
2023-01-19T12:02:00.383Z,32.40
2023-01-19T12:04:38.417Z,37.10
2023-01-19T12:07:10.526Z,25.58
2023-01-19T12:09:51.546Z,29.50
2023-01-19T12:12:35.232Z,28.13
2023-01-19T12:15:25.257Z,28.15
2023-01-19T12:17:58.682Z,28.70
2023-01-19T12:20:40.430Z,30.65
2023-01-19T12:23:39.291Z,29.25
2023-01-19T12:26:40.985Z,28.55
2023-01-19T12:29:19.801Z,28.38
2023-01-19T12:32:19.209Z,28.33
2023-01-19T12:34:55.898Z,26.55
2023-01-19T12:37:33.589Z,27.70
2023-01-19T12:40:25.502Z,26.67
2023-01-19T12:43:05.461Z,29.00
2023-01-19T12:45:39.999Z,25.10
2023-01-19T12:50:53.949Z,29.10
2023-01-19T12:53:22.709Z,25.05
2023-01-19T12:56:10.165Z,29.90
2023-01-19T12:59:01.911Z,28.08
2023-01-19T13:01:58.100Z,29.02
2023-01-19T13:05:09.456Z,30.77
2023-01-19T13:08:37.897Z,28.80
2023-01-19T13:12:16.575Z,27.42
2023-01-19T13:15:43.433Z,27.60
2023-01-19T13:18:30.136Z,31.20
2023-01-19T13:21:58.934Z,27.48
2023-01-19T13:25:10.833Z,24.50
2023-01-19T13:28:02.287Z,25.00
2023-01-19T13:31:37.136Z,27.00
2023-01-19T13:33:56.654Z,26.42
2023-01-19T13:36:43.250Z,22.63
2023-01-19T13:40:27.136Z,23.45
2023-01-19T13:43:29.305Z,26.27
2023-01-19T13:46:31.736Z,26.95
2023-01-19T13:49:55.317Z,24.05
2023-01-19T13:53:08.156Z,27.77
2023-01-19T13:56:59.073Z,23.65
2023-01-19T13:59:40.719Z,20.05
2023-01-19T14:02:21.714Z,25.83
2023-01-19T14:04:48.782Z,23.80
2023-01-19T14:07:26.138Z,25.20
2023-01-19T14:10:24.030Z,28.30
2023-01-19T14:13:34.298Z,18.58
2023-01-19T14:16:07.336Z,22.08
2023-01-19T14:18:39.486Z,22.25
2023-01-19T14:21:13.472Z,19.55
2023-01-19T14:23:55.054Z,25.77
2023-01-19T14:26:46.340Z,24.88
2023-01-19T14:29:34.865Z,17.65
2023-01-19T14:32:06.613Z,18.73
2023-01-19T14:35:12.855Z,22.17
2023-01-19T14:37:51.280Z,21.58
2023-01-19T14:40:24.431Z,21.55
2023-01-19T14:42:55.295Z,19.15
2023-01-19T14:45:37.934Z,21.27
2023-01-19T14:48:18.215Z,23.33
2023-01-19T14:51:02.112Z,17.08
2023-01-19T14:53:37.215Z,23.02
2023-01-19T14:56:07.243Z,17.38
2023-01-19T14:58:38.627Z,22.02
2023-01-19T15:01:20.148Z,19.00
2023-01-19T15:03:49.691Z,20.45
2023-01-19T15:06:23.603Z,22.23
2023-01-19T15:08:58.457Z,21.40
2023-01-19T15:11:35.026Z,21.42
2023-01-19T15:14:03.052Z,15.70
2023-01-19T15:16:36.984Z,16.48
2023-01-19T15:19:18.524Z,17.05
2023-01-19T15:21:54.903Z,16.65
2023-01-19T15:24:28.103Z,17.05
2023-01-19T15:27:02.976Z,22.13
2023-01-19T15:32:04.284Z,18.27
2023-01-19T15:34:31.187Z,18.23
2023-01-19T15:36:59.908Z,19.38
2023-01-19T15:39:30.687Z,16.17
2023-01-19T15:42:05.175Z,16.45
2023-01-19T15:44:42.319Z,20.38
2023-01-19T15:47:20.273Z,20.02
2023-01-19T15:50:01.524Z,25.08
2023-01-19T15:52:45.190Z,20.38
2023-01-19T15:55:31.970Z,20.52
2023-01-19T15:58:15.948Z,22.67
2023-01-19T16:00:49.314Z,22.20
2023-01-19T16:03:28.966Z,18.05
2023-01-19T16:06:04.911Z,14.95
2023-01-19T16:08:32.415Z,21.67
2023-01-19T16:11:20.617Z,27.10
2023-01-19T16:13:47.760Z,19.05
2023-01-19T16:16:19.729Z,17.50
2023-01-19T16:18:47.701Z,23.20
2023-01-19T16:21:17.917Z,19.65
2023-01-19T16:23:44.903Z,20.35
2023-01-19T16:26:37.314Z,16.05
2023-01-19T16:29:09.697Z,19.23
2023-01-19T16:31:45.558Z,17.42
2023-01-19T16:34:13.003Z,21.05
2023-01-19T16:36:43.329Z,18.27
2023-01-19T16:39:15.498Z,18.38
2023-01-19T16:41:45.296Z,18.70
2023-01-19T16:44:16.817Z,21.23
2023-01-19T16:46:49.237Z,20.98
2023-01-19T16:49:22.743Z,16.15
2023-01-19T16:51:50.386Z,24.13
2023-01-19T16:54:25.595Z,23.45
2023-01-19T16:56:55.149Z,20.08
2023-01-19T16:59:22.778Z,21.13
2023-01-19T17:01:51.980Z,19.90
2023-01-19T17:04:21.425Z,20.35
2023-01-19T17:06:52.565Z,19.30
2023-01-19T17:09:19.628Z,22.92
2023-01-19T17:11:46.919Z,22.25
2023-01-19T17:14:22.959Z,22.63
2023-01-19T17:16:50.594Z,24.40
2023-01-19T17:19:20.601Z,28.88
2023-01-19T17:21:49.909Z,22.27
2023-01-19T17:24:18.778Z,24.60
2023-01-19T17:26:48.563Z,22.67
2023-01-19T17:29:20.612Z,27.20
2023-01-19T17:31:51.090Z,26.25
2023-01-19T17:34:18.960Z,25.20
2023-01-19T17:36:46.227Z,27.98
2023-01-19T17:39:15.089Z,31.85
2023-01-19T17:41:42.590Z,35.05
2023-01-19T17:44:10.639Z,24.20
2023-01-19T17:46:40.039Z,23.20
2023-01-19T17:49:08.529Z,28.23
2023-01-19T17:51:36.352Z,27.08
2023-01-19T17:54:05.704Z,24.70
2023-01-19T17:56:36.821Z,26.02
2023-01-19T17:59:06.624Z,26.75
2023-01-19T18:01:40.051Z,35.38
2023-01-19T18:04:08.805Z,30.05
2023-01-19T18:06:37.080Z,26.92
2023-01-19T18:09:07.361Z,26.45
2023-01-19T18:11:35.176Z,25.48
2023-01-19T18:14:02.380Z,26.70
2023-01-19T18:16:34.553Z,31.75
2023-01-19T18:19:05.673Z,22.73
2023-01-19T18:21:33.031Z,26.02
2023-01-19T18:24:05.499Z,26.60
2023-01-19T18:26:37.599Z,29.65
2023-01-19T18:29:09.522Z,24.17
2023-01-19T18:31:38.161Z,33.72
2023-01-19T18:34:05.573Z,24.98
2023-01-19T18:36:34.185Z,27.23
2023-01-19T18:39:04.576Z,27.90
2023-01-19T18:41:31.966Z,23.30
2023-01-19T18:44:00.221Z,33.63
2023-01-19T18:46:27.626Z,29.00
2023-01-19T18:48:54.947Z,25.10
2023-01-19T18:51:23.593Z,26.92
2023-01-19T18:53:50.878Z,26.48
2023-01-19T18:56:18.135Z,27.33
2023-01-19T18:58:47.627Z,23.92
2023-01-19T19:01:23.387Z,24.85
2023-01-19T19:03:55.654Z,26.70
2023-01-19T19:06:27.117Z,25.38
2023-01-19T19:09:01.550Z,25.95
2023-01-19T19:11:29.911Z,29.92
2023-01-19T19:14:02.180Z,26.85
2023-01-19T19:16:33.364Z,25.13
2023-01-19T19:19:06.170Z,24.08
2023-01-19T19:21:34.067Z,28.75
2023-01-19T19:24:06.193Z,24.10
2023-01-19T19:26:36.248Z,26.70
2023-01-19T19:29:09.036Z,27.08
2023-01-19T19:31:36.448Z,26.52
2023-01-19T19:34:03.745Z,27.75
2023-01-19T19:36:31.728Z,28.92
2023-01-19T19:39:01.967Z,26.85
2023-01-19T19:41:32.580Z,30.05
2023-01-19T19:44:09.979Z,25.30
2023-01-19T19:46:42.694Z,31.65
2023-01-19T19:49:10.012Z,26.35
2023-01-19T19:51:37.104Z,23.15
2023-01-19T19:54:06.968Z,23.42
2023-01-19T19:56:52.068Z,34.60
2023-01-19T19:59:19.619Z,35.20
2023-01-19T20:01:47.179Z,36.95
2023-01-19T20:04:14.750Z,27.70
2023-01-19T20:06:44.777Z,31.42
2023-01-19T20:09:14.135Z,33.45
2023-01-19T20:11:43.260Z,33.72
2023-01-19T20:14:18.274Z,36.85
2023-01-19T20:16:45.543Z,33.38
2023-01-19T20:19:13.940Z,31.05
2023-01-19T20:21:43.543Z,29.27
2023-01-19T20:24:20.522Z,31.33
2023-01-19T20:26:53.629Z,31.73
2023-01-19T20:29:21.352Z,30.58
2023-01-19T20:31:55.473Z,31.55
2023-01-19T20:34:28.275Z,31.85
2023-01-19T20:36:57.235Z,35.45
2023-01-19T20:39:43.345Z,41.80
2023-01-19T20:42:11.536Z,29.67
2023-01-19T20:44:38.578Z,29.05
2023-01-19T20:47:09.813Z,29.27
2023-01-19T20:49:38.097Z,26.38
2023-01-19T20:52:08.213Z,27.73
2023-01-19T20:54:36.803Z,25.77
2023-01-19T20:57:03.983Z,25.95
2023-01-19T20:59:31.913Z,25.17
2023-01-19T21:02:00.102Z,25.85
2023-01-19T21:04:27.459Z,24.85
2023-01-19T21:06:54.623Z,28.02
2023-01-19T21:09:25.778Z,25.63
2023-01-19T21:11:58.370Z,23.67
2023-01-19T21:14:29.057Z,29.83
2023-01-19T21:16:59.063Z,24.38
2023-01-19T21:19:26.737Z,26.02
2023-01-19T21:21:56.609Z,25.50
2023-01-19T21:24:30.760Z,27.50
2023-01-19T21:27:01.910Z,23.58
2023-01-19T21:29:29.261Z,29.10
2023-01-19T21:31:57.687Z,25.23
2023-01-19T21:34:24.833Z,26.90
2023-01-19T21:37:05.821Z,27.15
2023-01-19T21:39:34.887Z,30.45
2023-01-19T21:42:02.124Z,25.27
2023-01-19T21:44:29.293Z,21.75
2023-01-19T21:46:59.941Z,24.27
2023-01-19T21:49:28.174Z,27.00
2023-01-19T21:52:01.168Z,32.67
2023-01-19T21:54:29.989Z,23.25
2023-01-19T21:57:03.874Z,28.63
2023-01-19T21:59:32.557Z,27.65
2023-01-19T22:02:01.061Z,29.80
2023-01-19T22:04:28.444Z,30.55
2023-01-19T22:06:55.443Z,27.75
2023-01-19T22:09:22.724Z,27.20
2023-01-19T22:11:49.653Z,26.45
2023-01-19T22:14:17.004Z,29.95
2023-01-19T22:16:44.405Z,27.73
2023-01-19T22:19:14.330Z,27.05
2023-01-19T22:21:41.744Z,28.45
2023-01-19T22:24:08.997Z,27.15
2023-01-19T22:26:37.098Z,29.42
2023-01-19T22:29:11.017Z,27.30
2023-01-19T22:31:39.720Z,27.33
2023-01-19T22:34:10.925Z,30.83
2023-01-19T22:36:40.810Z,30.58
2023-01-19T22:39:11.449Z,28.40
2023-01-19T22:41:46.201Z,29.65
2023-01-19T22:47:28.051Z,27.02
2023-01-19T22:49:55.027Z,27.75
2023-01-19T22:52:22.118Z,27.17
2023-01-19T22:54:49.036Z,29.27
2023-01-19T22:57:16.002Z,33.28
2023-01-19T22:59:43.633Z,29.77
2023-01-19T23:02:12.359Z,30.90
2023-01-19T23:04:42.132Z,27.77
2023-01-19T23:07:09.712Z,31.10
2023-01-19T23:09:38.298Z,28.60
2023-01-19T23:12:05.532Z,29.00
2023-01-19T23:14:32.537Z,30.88
2023-01-19T23:16:59.535Z,27.30
2023-01-19T23:19:26.688Z,31.48
2023-01-19T23:21:53.853Z,29.58
2023-01-19T23:24:21.189Z,32.35
2023-01-19T23:26:50.722Z,34.50
2023-01-19T23:29:18.273Z,32.38
2023-01-19T23:31:48.799Z,33.08
2023-01-19T23:34:16.751Z,31.85
2023-01-19T23:36:44.630Z,34.17
2023-01-19T23:39:19.463Z,33.10
2023-01-19T23:44:14.884Z,28.90
2023-01-19T23:46:42.065Z,30.75
2023-01-19T23:49:09.097Z,34.92
2023-01-19T23:51:36.041Z,36.92
2023-01-19T23:54:03.379Z,42.40
2023-01-19T23:56:34.327Z,41.15
2023-01-19T23:59:05.881Z,35.65
